sensor_id;sensor_type;location;lat;lon;timestamp;pressure;altitude;pressure_sealevel;temperature;humidity
67697;BME280;54486;51.442;6.778;2024-01-15T00:02:14;76781.91;;;-141.21;56.95
67697;BME280;54486;51.442;6.778;2024-01-15T00:04:43;76773.91;;;-141.21;56.82
67697;BME280;54486;51.442;6.778;2024-01-15T00:07:10;76761.91;;;-141.21;57.04
67697;BME280;54486;51.442;6.778;2024-01-15T00:09:37;76757.88;;;-141.21;56.79
67697;BME280;54486;51.442;6.778;2024-01-15T00:12:05;76757.88;;;-141.21;56.90
67697;BME280;54486;51.442;6.778;2024-01-15T00:14:32;76753.88;;;-141.21;56.92
67697;BME280;54486;51.442;6.778;2024-01-15T00:17:00;76745.88;;;-141.21;56.80
67697;BME280;54486;51.442;6.778;2024-01-15T00:19:28;76801.94;;;-141.21;57.60
67697;BME280;54486;51.442;6.778;2024-01-15T00:21:56;76765.91;;;-141.21;57.56
67697;BME280;54486;51.442;6.778;2024-01-15T00:24:24;76735.88;;;-141.21;56.94
67697;BME280;54486;51.442;6.778;2024-01-15T00:26:52;76759.91;;;-141.21;57.24
67697;BME280;54486;51.442;6.778;2024-01-15T00:29:23;76753.88;;;-141.21;57.07
67697;BME280;54486;51.442;6.778;2024-01-15T00:31:51;76739.88;;;-141.21;56.79
67697;BME280;54486;51.442;6.778;2024-01-15T00:34:18;76771.91;;;-141.21;57.48
67697;BME280;54486;51.442;6.778;2024-01-15T00:36:46;76757.88;;;-141.21;57.20
67697;BME280;54486;51.442;6.778;2024-01-15T00:39:13;76757.88;;;-141.21;58.05
67697;BME280;54486;51.442;6.778;2024-01-15T00:41:43;76729.88;;;-141.21;57.30
67697;BME280;54486;51.442;6.778;2024-01-15T00:44:10;76751.88;;;-141.21;57.62
67697;BME280;54486;51.442;6.778;2024-01-15T00:46:44;76769.91;;;-141.21;57.62
67697;BME280;54486;51.442;6.778;2024-01-15T00:49:14;76741.88;;;-141.21;57.28
67697;BME280;54486;51.442;6.778;2024-01-15T00:51:42;76717.88;;;-141.21;56.91
67697;BME280;54486;51.442;6.778;2024-01-15T00:54:10;76725.88;;;-141.21;56.90
67697;BME280;54486;51.442;6.778;2024-01-15T00:56:37;76727.88;;;-141.21;57.02
67697;BME280;54486;51.442;6.778;2024-01-15T00:59:04;76749.88;;;-141.21;57.41
67697;BME280;54486;51.442;6.778;2024-01-15T01:01:31;76719.88;;;-141.21;57.10
67697;BME280;54486;51.442;6.778;2024-01-15T01:03:59;76725.88;;;-141.21;57.25
67697;BME280;54486;51.442;6.778;2024-01-15T01:06:27;76721.88;;;-141.21;57.38
67697;BME280;54486;51.442;6.778;2024-01-15T01:08:58;76717.88;;;-141.21;56.93
67697;BME280;54486;51.442;6.778;2024-01-15T01:11:24;76701.84;;;-141.21;57.00
67697;BME280;54486;51.442;6.778;2024-01-15T01:13:52;76717.88;;;-141.21;57.32
67697;BME280;54486;51.442;6.778;2024-01-15T01:16:19;76709.84;;;-141.21;57.19
67697;BME280;54486;51.442;6.778;2024-01-15T01:18:47;76721.88;;;-141.21;56.99
67697;BME280;54486;51.442;6.778;2024-01-15T01:21:15;76717.88;;;-141.21;57.14
67697;BME280;54486;51.442;6.778;2024-01-15T01:23:42;76725.88;;;-141.21;57.41
67697;BME280;54486;51.442;6.778;2024-01-15T01:26:09;76717.88;;;-141.21;57.12
67697;BME280;54486;51.442;6.778;2024-01-15T01:28:37;76733.88;;;-141.21;57.75
67697;BME280;54486;51.442;6.778;2024-01-15T01:31:05;76729.88;;;-141.21;57.29
67697;BME280;54486;51.442;6.778;2024-01-15T01:33:32;76729.88;;;-141.21;57.26
67697;BME280;54486;51.442;6.778;2024-01-15T01:36:00;76713.88;;;-141.21;57.13
67697;BME280;54486;51.442;6.778;2024-01-15T01:38:27;76725.88;;;-141.21;57.65
67697;BME280;54486;51.442;6.778;2024-01-15T01:40:54;76725.88;;;-141.21;57.36
67697;BME280;54486;51.442;6.778;2024-01-15T01:43:21;76727.88;;;-141.21;57.48
67697;BME280;54486;51.442;6.778;2024-01-15T01:45:48;76751.88;;;-141.21;57.58
67697;BME280;54486;51.442;6.778;2024-01-15T01:48:16;76745.88;;;-141.21;57.49
67697;BME280;54486;51.442;6.778;2024-01-15T01:50:44;76757.88;;;-141.21;57.67
67697;BME280;54486;51.442;6.778;2024-01-15T01:53:11;76717.88;;;-141.21;57.41
67697;BME280;54486;51.442;6.778;2024-01-15T01:55:39;76715.88;;;-141.21;57.48
67697;BME280;54486;51.442;6.778;2024-01-15T01:58:07;76733.88;;;-141.21;57.18
67697;BME280;54486;51.442;6.778;2024-01-15T02:00:35;76711.88;;;-141.21;57.21
67697;BME280;54486;51.442;6.778;2024-01-15T02:03:03;76749.88;;;-141.21;57.99
67697;BME280;54486;51.442;6.778;2024-01-15T02:05:31;76729.88;;;-141.21;56.94
67697;BME280;54486;51.442;6.778;2024-01-15T02:07:59;76721.88;;;-141.21;57.16
67697;BME280;54486;51.442;6.778;2024-01-15T02:10:27;76739.88;;;-141.21;57.06
67697;BME280;54486;51.442;6.778;2024-01-15T02:12:54;76731.88;;;-141.21;57.25
67697;BME280;54486;51.442;6.778;2024-01-15T02:15:21;76713.88;;;-141.21;57.33
67697;BME280;54486;51.442;6.778;2024-01-15T02:20:25;76737.88;;;-141.21;57.44
67697;BME280;54486;51.442;6.778;2024-01-15T02:22:53;76733.88;;;-141.21;57.26
67697;BME280;54486;51.442;6.778;2024-01-15T02:25:21;76717.88;;;-141.21;57.12
67697;BME280;54486;51.442;6.778;2024-01-15T02:27:48;76713.88;;;-141.21;57.38
67697;BME280;54486;51.442;6.778;2024-01-15T02:30:16;76721.88;;;-141.21;57.63
67697;BME280;54486;51.442;6.778;2024-01-15T02:32:44;76717.88;;;-141.21;57.38
67697;BME280;54486;51.442;6.778;2024-01-15T02:35:13;76719.88;;;-141.21;57.38
67697;BME280;54486;51.442;6.778;2024-01-15T02:37:43;76723.88;;;-141.21;57.42
67697;BME280;54486;51.442;6.778;2024-01-15T02:40:13;76733.88;;;-141.21;57.62
67697;BME280;54486;51.442;6.778;2024-01-15T02:42:41;76705.84;;;-141.21;57.34
67697;BME280;54486;51.442;6.778;2024-01-15T02:45:08;76713.88;;;-141.21;57.16
67697;BME280;54486;51.442;6.778;2024-01-15T02:47:35;76741.88;;;-141.21;57.83
67697;BME280;54486;51.442;6.778;2024-01-15T02:50:03;76723.88;;;-141.21;57.16
67697;BME280;54486;51.442;6.778;2024-01-15T02:52:32;76735.88;;;-141.21;57.49
67697;BME280;54486;51.442;6.778;2024-01-15T02:54:59;76719.88;;;-141.21;57.89
67697;BME280;54486;51.442;6.778;2024-01-15T02:57:27;76737.88;;;-141.21;57.48
67697;BME280;54486;51.442;6.778;2024-01-15T02:59:54;76707.84;;;-141.21;57.45
67697;BME280;54486;51.442;6.778;2024-01-15T03:02:22;76709.84;;;-141.21;57.12
67697;BME280;54486;51.442;6.778;2024-01-15T03:04:49;76713.88;;;-141.21;56.99
67697;BME280;54486;51.442;6.778;2024-01-15T03:07:17;76719.88;;;-141.21;57.31
67697;BME280;54486;51.442;6.778;2024-01-15T03:09:44;76717.88;;;-141.21;57.36
67697;BME280;54486;51.442;6.778;2024-01-15T03:12:11;76705.84;;;-141.21;57.24
67697;BME280;54486;51.442;6.778;2024-01-15T03:14:39;76689.84;;;-141.21;57.19
67697;BME280;54486;51.442;6.778;2024-01-15T03:17:07;76701.84;;;-141.21;56.81
67697;BME280;54486;51.442;6.778;2024-01-15T03:19:35;76717.88;;;-141.21;57.52
67697;BME280;54486;51.442;6.778;2024-01-15T03:22:03;76717.88;;;-141.21;57.22
67697;BME280;54486;51.442;6.778;2024-01-15T03:24:31;76741.88;;;-141.21;57.27
67697;BME280;54486;51.442;6.778;2024-01-15T03:26:59;76711.88;;;-141.21;57.07
67697;BME280;54486;51.442;6.778;2024-01-15T03:29:26;76709.84;;;-141.21;57.10
67697;BME280;54486;51.442;6.778;2024-01-15T03:31:53;76725.88;;;-141.21;57.30
67697;BME280;54486;51.442;6.778;2024-01-15T03:34:21;76717.88;;;-141.21;57.64
67697;BME280;54486;51.442;6.778;2024-01-15T03:36:48;76729.88;;;-141.21;57.24
67697;BME280;54486;51.442;6.778;2024-01-15T03:39:15;76703.84;;;-141.21;57.13
67697;BME280;54486;51.442;6.778;2024-01-15T03:41:44;76717.88;;;-141.21;57.10
67697;BME280;54486;51.442;6.778;2024-01-15T03:44:12;76693.84;;;-141.21;57.05
67697;BME280;54486;51.442;6.778;2024-01-15T03:46:39;76715.88;;;-141.21;57.20
67697;BME280;54486;51.442;6.778;2024-01-15T03:49:06;76697.84;;;-141.21;57.06
67697;BME280;54486;51.442;6.778;2024-01-15T03:51:38;76711.88;;;-141.21;57.26
67697;BME280;54486;51.442;6.778;2024-01-15T03:54:05;76703.84;;;-141.21;57.20
67697;BME280;54486;51.442;6.778;2024-01-15T03:56:34;76705.84;;;-141.21;57.08
67697;BME280;54486;51.442;6.778;2024-01-15T03:59:02;76697.84;;;-141.21;56.90
67697;BME280;54486;51.442;6.778;2024-01-15T04:01:29;76693.84;;;-141.21;57.26
67697;BME280;54486;51.442;6.778;2024-01-15T04:03:57;76681.84;;;-141.21;56.76
67697;BME280;54486;51.442;6.778;2024-01-15T04:06:25;76673.84;;;-141.21;56.80
67697;BME280;54486;51.442;6.778;2024-01-15T04:08:53;76711.88;;;-141.21;57.20
67697;BME280;54486;51.442;6.778;2024-01-15T04:11:20;76681.84;;;-141.21;57.15
67697;BME280;54486;51.442;6.778;2024-01-15T04:13:47;76697.84;;;-141.21;57.28
67697;BME280;54486;51.442;6.778;2024-01-15T04:16:15;76685.84;;;-141.21;56.94
67697;BME280;54486;51.442;6.778;2024-01-15T04:18:43;76677.84;;;-141.21;57.10
67697;BME280;54486;51.442;6.778;2024-01-15T04:21:11;76713.88;;;-141.21;57.71
67697;BME280;54486;51.442;6.778;2024-01-15T04:23:39;76669.84;;;-141.21;57.09
67697;BME280;54486;51.442;6.778;2024-01-15T04:26:06;76701.84;;;-141.21;57.31
67697;BME280;54486;51.442;6.778;2024-01-15T04:28:33;76681.84;;;-141.21;57.39
67697;BME280;54486;51.442;6.778;2024-01-15T04:31:01;76671.84;;;-141.21;56.93
67697;BME280;54486;51.442;6.778;2024-01-15T04:33:28;76693.84;;;-141.21;57.18
67697;BME280;54486;51.442;6.778;2024-01-15T04:35:56;76673.84;;;-141.21;57.26
67697;BME280;54486;51.442;6.778;2024-01-15T04:38:23;76665.81;;;-141.21;57.18
67697;BME280;54486;51.442;6.778;2024-01-15T04:40:50;76669.84;;;-141.21;56.78
67697;BME280;54486;51.442;6.778;2024-01-15T04:43:22;76681.84;;;-141.21;57.32
67697;BME280;54486;51.442;6.778;2024-01-15T04:45:49;76673.84;;;-141.21;57.19
67697;BME280;54486;51.442;6.778;2024-01-15T04:48:17;76681.84;;;-141.21;57.10
67697;BME280;54486;51.442;6.778;2024-01-15T04:50:45;76701.84;;;-141.21;57.30
67697;BME280;54486;51.442;6.778;2024-01-15T04:53:13;76677.84;;;-141.21;57.06
67697;BME280;54486;51.442;6.778;2024-01-15T04:55:41;76673.84;;;-141.21;57.07
67697;BME280;54486;51.442;6.778;2024-01-15T04:58:09;76673.84;;;-141.21;57.18
67697;BME280;54486;51.442;6.778;2024-01-15T05:00:37;76669.84;;;-141.21;56.93
67697;BME280;54486;51.442;6.778;2024-01-15T05:03:04;76661.81;;;-141.21;57.04
67697;BME280;54486;51.442;6.778;2024-01-15T05:05:32;76669.84;;;-141.21;57.08
67697;BME280;54486;51.442;6.778;2024-01-15T05:07:59;76693.84;;;-141.21;57.66
67697;BME280;54486;51.442;6.778;2024-01-15T05:10:26;76677.84;;;-141.21;57.50
67697;BME280;54486;51.442;6.778;2024-01-15T05:12:55;76649.81;;;-141.21;57.03
67697;BME280;54486;51.442;6.778;2024-01-15T05:15:24;76653.81;;;-141.21;56.93
67697;BME280;54486;51.442;6.778;2024-01-15T05:17:51;76657.81;;;-141.21;57.18
67697;BME280;54486;51.442;6.778;2024-01-15T05:20:20;76661.81;;;-141.21;57.26
67697;BME280;54486;51.442;6.778;2024-01-15T05:22:48;76683.84;;;-141.21;57.55
67697;BME280;54486;51.442;6.778;2024-01-15T05:25:16;76661.81;;;-141.21;57.29
67697;BME280;54486;51.442;6.778;2024-01-15T05:27:43;76657.81;;;-141.21;56.76
67697;BME280;54486;51.442;6.778;2024-01-15T05:30:11;76653.81;;;-141.21;56.94
67697;BME280;54486;51.442;6.778;2024-01-15T05:32:41;76665.81;;;-141.21;57.00
67697;BME280;54486;51.442;6.778;2024-01-15T05:35:08;76653.81;;;-141.21;56.58
67697;BME280;54486;51.442;6.778;2024-01-15T05:37:36;76667.84;;;-141.21;57.49
67697;BME280;54486;51.442;6.778;2024-01-15T05:40:04;76645.81;;;-141.21;57.00
67697;BME280;54486;51.442;6.778;2024-01-15T05:42:31;76665.81;;;-141.21;57.30
67697;BME280;54486;51.442;6.778;2024-01-15T05:44:59;76655.81;;;-141.21;57.33
67697;BME280;54486;51.442;6.778;2024-01-15T05:47:29;76653.81;;;-141.21;57.24
67697;BME280;54486;51.442;6.778;2024-01-15T05:49:58;76673.84;;;-141.21;57.00
67697;BME280;54486;51.442;6.778;2024-01-15T05:52:26;76655.81;;;-141.21;57.06
67697;BME280;54486;51.442;6.778;2024-01-15T05:54:53;76645.81;;;-141.21;56.92
67697;BME280;54486;51.442;6.778;2024-01-15T05:57:20;76649.81;;;-141.21;57.20
67697;BME280;54486;51.442;6.778;2024-01-15T05:59:49;76661.81;;;-141.21;56.77
67697;BME280;54486;51.442;6.778;2024-01-15T06:02:16;76665.81;;;-141.21;56.72
67697;BME280;54486;51.442;6.778;2024-01-15T06:04:43;76655.81;;;-141.21;57.16
67697;BME280;54486;51.442;6.778;2024-01-15T06:07:11;76641.81;;;-141.21;57.10
67697;BME280;54486;51.442;6.778;2024-01-15T06:09:38;76629.81;;;-141.21;56.88
67697;BME280;54486;51.442;6.778;2024-01-15T06:12:07;76637.81;;;-141.21;56.89
67697;BME280;54486;51.442;6.778;2024-01-15T06:14:35;76621.81;;;-141.21;56.82
67697;BME280;54486;51.442;6.778;2024-01-15T06:17:03;76605.78;;;-141.21;56.86
67697;BME280;54486;51.442;6.778;2024-01-15T06:19:31;76645.81;;;-141.21;56.68
67697;BME280;54486;51.442;6.778;2024-01-15T06:21:59;76621.81;;;-141.21;56.82
67697;BME280;54486;51.442;6.778;2024-01-15T06:24:27;76613.78;;;-141.21;56.62
67697;BME280;54486;51.442;6.778;2024-01-15T06:26:55;76641.81;;;-141.21;57.33
67697;BME280;54486;51.442;6.778;2024-01-15T06:29:25;76629.81;;;-141.21;57.04
67697;BME280;54486;51.442;6.778;2024-01-15T06:31:53;76609.78;;;-141.21;56.57
67697;BME280;54486;51.442;6.778;2024-01-15T06:34:20;76589.78;;;-141.21;56.76
67697;BME280;54486;51.442;6.778;2024-01-15T06:36:48;76597.78;;;-141.21;56.52
67697;BME280;54486;51.442;6.778;2024-01-15T06:39:18;76609.78;;;-141.21;57.04
67697;BME280;54486;51.442;6.778;2024-01-15T06:41:45;76617.81;;;-141.21;56.84
67697;BME280;54486;51.442;6.778;2024-01-15T06:44:12;76609.78;;;-141.21;56.86
67697;BME280;54486;51.442;6.778;2024-01-15T06:46:43;76639.81;;;-141.21;56.54
67697;BME280;54486;51.442;6.778;2024-01-15T06:49:11;76605.78;;;-141.21;56.93
67697;BME280;54486;51.442;6.778;2024-01-15T06:51:39;76605.78;;;-141.21;56.78
67697;BME280;54486;51.442;6.778;2024-01-15T06:54:08;76599.78;;;-141.21;56.64
67697;BME280;54486;51.442;6.778;2024-01-15T06:56:36;76601.78;;;-141.21;56.35
67697;BME280;54486;51.442;6.778;2024-01-15T06:59:05;76609.78;;;-141.21;56.70
67697;BME280;54486;51.442;6.778;2024-01-15T07:01:32;76609.78;;;-141.21;56.60
67697;BME280;54486;51.442;6.778;2024-01-15T07:04:01;76629.81;;;-141.21;56.40
67697;BME280;54486;51.442;6.778;2024-01-15T07:06:28;76609.78;;;-141.21;57.04
67697;BME280;54486;51.442;6.778;2024-01-15T07:08:57;76593.78;;;-141.21;56.48
67697;BME280;54486;51.442;6.778;2024-01-15T07:11:25;76607.78;;;-141.21;56.72
67697;BME280;54486;51.442;6.778;2024-01-15T07:13:52;76617.81;;;-141.21;56.66
67697;BME280;54486;51.442;6.778;2024-01-15T07:16:20;76615.78;;;-141.21;56.79
67697;BME280;54486;51.442;6.778;2024-01-15T07:19:06;76601.78;;;-141.21;56.73
67697;BME280;54486;51.442;6.778;2024-01-15T07:21:33;76607.78;;;-141.21;56.87
67697;BME280;54486;51.442;6.778;2024-01-15T07:24:00;76621.81;;;-141.21;56.74
67697;BME280;54486;51.442;6.778;2024-01-15T07:26:30;76623.81;;;-141.21;57.09
67697;BME280;54486;51.442;6.778;2024-01-15T07:28:57;76613.78;;;-141.21;56.70
67697;BME280;54486;51.442;6.778;2024-01-15T07:31:26;76605.78;;;-141.21;56.92
67697;BME280;54486;51.442;6.778;2024-01-15T07:33:54;76605.78;;;-141.21;56.70
67697;BME280;54486;51.442;6.778;2024-01-15T07:36:21;76603.78;;;-141.21;56.59
67697;BME280;54486;51.442;6.778;2024-01-15T07:38:49;76621.81;;;-141.21;57.20
67697;BME280;54486;51.442;6.778;2024-01-15T07:41:17;76645.81;;;-141.21;57.30
67697;BME280;54486;51.442;6.778;2024-01-15T07:43:44;76613.78;;;-141.21;56.83
67697;BME280;54486;51.442;6.778;2024-01-15T07:46:13;76611.78;;;-141.21;56.90
67697;BME280;54486;51.442;6.778;2024-01-15T07:48:40;76609.78;;;-141.21;57.26
67697;BME280;54486;51.442;6.778;2024-01-15T07:51:08;76633.81;;;-141.21;57.49
67697;BME280;54486;51.442;6.778;2024-01-15T07:53:36;76601.78;;;-141.21;57.34
67697;BME280;54486;51.442;6.778;2024-01-15T07:56:03;76619.81;;;-141.21;57.26
67697;BME280;54486;51.442;6.778;2024-01-15T07:58:31;76637.81;;;-141.21;57.08
67697;BME280;54486;51.442;6.778;2024-01-15T08:00:58;76611.78;;;-141.21;56.88
67697;BME280;54486;51.442;6.778;2024-01-15T08:03:26;76661.81;;;-141.21;57.82
67697;BME280;54486;51.442;6.778;2024-01-15T08:05:54;76665.81;;;-141.21;57.41
67697;BME280;54486;51.442;6.778;2024-01-15T08:08:23;76645.81;;;-141.21;58.00
67697;BME280;54486;51.442;6.778;2024-01-15T08:10:50;76617.81;;;-141.21;57.17
67697;BME280;54486;51.442;6.778;2024-01-15T08:13:19;76609.78;;;-141.21;57.32
67697;BME280;54486;51.442;6.778;2024-01-15T08:15:48;76599.78;;;-141.21;57.02
67697;BME280;54486;51.442;6.778;2024-01-15T08:18:15;76615.78;;;-141.21;57.22
67697;BME280;54486;51.442;6.778;2024-01-15T08:20:43;76627.81;;;-141.21;57.40
67697;BME280;54486;51.442;6.778;2024-01-15T08:23:11;76633.81;;;-141.21;57.32
67697;BME280;54486;51.442;6.778;2024-01-15T08:25:39;76649.81;;;-141.21;57.46
67697;BME280;54486;51.442;6.778;2024-01-15T08:28:07;76609.78;;;-141.21;57.31
67697;BME280;54486;51.442;6.778;2024-01-15T08:30:38;76601.78;;;-141.21;56.92
67697;BME280;54486;51.442;6.778;2024-01-15T08:33:06;76599.78;;;-141.21;56.97
67697;BME280;54486;51.442;6.778;2024-01-15T08:35:48;76617.81;;;-141.21;56.94
67697;BME280;54486;51.442;6.778;2024-01-15T08:38:15;76625.81;;;-141.21;57.30
67697;BME280;54486;51.442;6.778;2024-01-15T08:40:42;76609.78;;;-141.21;56.92
67697;BME280;54486;51.442;6.778;2024-01-15T08:43:10;76601.78;;;-141.21;56.96
67697;BME280;54486;51.442;6.778;2024-01-15T08:45:38;76613.78;;;-141.21;57.12
67697;BME280;54486;51.442;6.778;2024-01-15T08:48:05;76605.78;;;-141.21;56.94
67697;BME280;54486;51.442;6.778;2024-01-15T08:50:33;76625.81;;;-141.21;57.21
67697;BME280;54486;51.442;6.778;2024-01-15T08:53:00;76661.81;;;-141.21;57.72
67697;BME280;54486;51.442;6.778;2024-01-15T08:55:27;76653.81;;;-141.21;57.52
67697;BME280;54486;51.442;6.778;2024-01-15T08:57:55;76661.81;;;-141.21;57.18
67697;BME280;54486;51.442;6.778;2024-01-15T09:00:22;76649.81;;;-141.21;57.22
67697;BME280;54486;51.442;6.778;2024-01-15T09:02:59;76651.81;;;-141.21;57.04
67697;BME280;54486;51.442;6.778;2024-01-15T09:05:28;76653.81;;;-141.21;57.54
67697;BME280;54486;51.442;6.778;2024-01-15T09:07:56;76645.81;;;-141.21;57.40
67697;BME280;54486;51.442;6.778;2024-01-15T09:10:23;76641.81;;;-141.21;57.13
67697;BME280;54486;51.442;6.778;2024-01-15T09:12:51;76665.81;;;-141.21;56.83
67697;BME280;54486;51.442;6.778;2024-01-15T09:15:18;76651.81;;;-141.21;57.07
67697;BME280;54486;51.442;6.778;2024-01-15T09:17:47;76649.81;;;-141.21;56.96
67697;BME280;54486;51.442;6.778;2024-01-15T09:20:14;76639.81;;;-141.21;57.01
67697;BME280;54486;51.442;6.778;2024-01-15T09:22:42;76653.81;;;-141.21;56.84
67697;BME280;54486;51.442;6.778;2024-01-15T09:25:11;76653.81;;;-141.21;57.38
67697;BME280;54486;51.442;6.778;2024-01-15T09:27:39;76657.81;;;-141.21;57.14
67697;BME280;54486;51.442;6.778;2024-01-15T09:30:09;76665.81;;;-141.21;57.23
67697;BME280;54486;51.442;6.778;2024-01-15T09:32:37;76649.81;;;-141.21;57.04
67697;BME280;54486;51.442;6.778;2024-01-15T09:35:05;76645.81;;;-141.21;57.52
67697;BME280;54486;51.442;6.778;2024-01-15T09:37:33;76661.81;;;-141.21;56.99
67697;BME280;54486;51.442;6.778;2024-01-15T09:40:13;76665.81;;;-141.21;57.65
67697;BME280;54486;51.442;6.778;2024-01-15T09:42:46;76645.81;;;-141.21;57.05
67697;BME280;54486;51.442;6.778;2024-01-15T09:45:14;76651.81;;;-141.21;56.83
67697;BME280;54486;51.442;6.778;2024-01-15T09:47:42;76649.81;;;-141.21;56.90
67697;BME280;54486;51.442;6.778;2024-01-15T09:50:13;76647.81;;;-141.21;57.08
67697;BME280;54486;51.442;6.778;2024-01-15T09:52:45;76645.81;;;-141.21;57.09
67697;BME280;54486;51.442;6.778;2024-01-15T09:55:13;76637.81;;;-141.21;57.29
67697;BME280;54486;51.442;6.778;2024-01-15T09:57:44;76651.81;;;-141.21;57.40
67697;BME280;54486;51.442;6.778;2024-01-15T10:00:12;76659.81;;;-141.21;56.98
67697;BME280;54486;51.442;6.778;2024-01-15T10:02:40;76653.81;;;-141.21;57.25
67697;BME280;54486;51.442;6.778;2024-01-15T10:05:09;76645.81;;;-141.21;57.16
67697;BME280;54486;51.442;6.778;2024-01-15T10:07:37;76653.81;;;-141.21;57.02
67697;BME280;54486;51.442;6.778;2024-01-15T10:10:05;76665.81;;;-141.21;57.47
67697;BME280;54486;51.442;6.778;2024-01-15T10:12:33;76647.81;;;-141.21;57.36
67697;BME280;54486;51.442;6.778;2024-01-15T10:15:01;76635.81;;;-141.21;57.22
67697;BME280;54486;51.442;6.778;2024-01-15T10:17:28;76621.81;;;-141.21;56.85
67697;BME280;54486;51.442;6.778;2024-01-15T10:19:58;76635.81;;;-141.21;57.24
67697;BME280;54486;51.442;6.778;2024-01-15T10:22:25;76637.81;;;-141.21;57.06
67697;BME280;54486;51.442;6.778;2024-01-15T10:24:52;76629.81;;;-141.21;57.32
67697;BME280;54486;51.442;6.778;2024-01-15T10:27:20;76625.81;;;-141.21;57.22
67697;BME280;54486;51.442;6.778;2024-01-15T10:29:49;76657.81;;;-141.21;57.36
67697;BME280;54486;51.442;6.778;2024-01-15T10:32:16;76641.81;;;-141.21;57.16
67697;BME280;54486;51.442;6.778;2024-01-15T10:34:43;76621.81;;;-141.21;56.99
67697;BME280;54486;51.442;6.778;2024-01-15T10:37:11;76637.81;;;-141.21;57.15
67697;BME280;54486;51.442;6.778;2024-01-15T10:39:38;76613.78;;;-141.21;56.99
67697;BME280;54486;51.442;6.778;2024-01-15T10:42:06;76617.81;;;-141.21;56.80
67697;BME280;54486;51.442;6.778;2024-01-15T10:44:35;76625.81;;;-141.21;57.22
67697;BME280;54486;51.442;6.778;2024-01-15T10:47:03;76623.81;;;-141.21;56.90
67697;BME280;54486;51.442;6.778;2024-01-15T10:49:32;76625.81;;;-141.21;56.90
67697;BME280;54486;51.442;6.778;2024-01-15T10:52:02;76631.81;;;-141.21;57.16
67697;BME280;54486;51.442;6.778;2024-01-15T10:54:30;76609.78;;;-141.21;57.12
67697;BME280;54486;51.442;6.778;2024-01-15T10:56:58;76641.81;;;-141.21;57.02
67697;BME280;54486;51.442;6.778;2024-01-15T10:59:25;76645.81;;;-141.21;57.44
67697;BME280;54486;51.442;6.778;2024-01-15T11:01:53;76629.81;;;-141.21;57.20
67697;BME280;54486;51.442;6.778;2024-01-15T11:04:23;76649.81;;;-141.21;57.27
67697;BME280;54486;51.442;6.778;2024-01-15T11:06:55;76633.81;;;-141.21;56.98
67697;BME280;54486;51.442;6.778;2024-01-15T11:09:24;76637.81;;;-141.21;57.03
67697;BME280;54486;51.442;6.778;2024-01-15T11:12:07;76665.81;;;-141.21;57.70
67697;BME280;54486;51.442;6.778;2024-01-15T11:14:47;76675.84;;;-141.21;57.44
67697;BME280;54486;51.442;6.778;2024-01-15T11:17:15;76657.81;;;-141.21;57.42
67697;BME280;54486;51.442;6.778;2024-01-15T11:19:48;76653.81;;;-141.21;57.88
67697;BME280;54486;51.442;6.778;2024-01-15T11:25:14;76665.81;;;-141.21;57.34
67697;BME280;54486;51.442;6.778;2024-01-15T11:27:44;76637.81;;;-141.21;57.52
67697;BME280;54486;51.442;6.778;2024-01-15T11:30:15;76623.81;;;-141.21;57.10
67697;BME280;54486;51.442;6.778;2024-01-15T11:32:42;76629.81;;;-141.21;57.14
67697;BME280;54486;51.442;6.778;2024-01-15T11:35:12;76645.81;;;-141.21;57.25
67697;BME280;54486;51.442;6.778;2024-01-15T11:42:59;76633.81;;;-141.21;57.08
67697;BME280;54486;51.442;6.778;2024-01-15T11:45:27;76645.81;;;-141.21;57.28
67697;BME280;54486;51.442;6.778;2024-01-15T11:48:14;76613.78;;;-141.21;57.43
67697;BME280;54486;51.442;6.778;2024-01-15T11:50:46;76629.81;;;-141.21;57.02
67697;BME280;54486;51.442;6.778;2024-01-15T11:55:51;76637.81;;;-141.21;57.57
67697;BME280;54486;51.442;6.778;2024-01-15T11:58:20;76643.81;;;-141.21;57.90
67697;BME280;54486;51.442;6.778;2024-01-15T12:00:48;76633.81;;;-141.21;57.59
67697;BME280;54486;51.442;6.778;2024-01-15T12:03:22;76643.81;;;-141.21;57.66
67697;BME280;54486;51.442;6.778;2024-01-15T12:05:49;76617.81;;;-141.21;57.39
67697;BME280;54486;51.442;6.778;2024-01-15T12:08:23;76675.84;;;-141.21;58.44
67697;BME280;54486;51.442;6.778;2024-01-15T12:10:52;76655.81;;;-141.21;57.80
67697;BME280;54486;51.442;6.778;2024-01-15T12:13:20;76645.81;;;-141.21;57.74
67697;BME280;54486;51.442;6.778;2024-01-15T12:15:48;76623.81;;;-141.21;57.68
67697;BME280;54486;51.442;6.778;2024-01-15T12:18:18;76625.81;;;-141.21;57.38
67697;BME280;54486;51.442;6.778;2024-01-15T12:20:47;76649.81;;;-141.21;58.22
67697;BME280;54486;51.442;6.778;2024-01-15T12:23:15;76655.81;;;-141.21;57.67
67697;BME280;54486;51.442;6.778;2024-01-15T12:25:45;76621.81;;;-141.21;57.28
67697;BME280;54486;51.442;6.778;2024-01-15T12:28:15;76617.81;;;-141.21;57.56
67697;BME280;54486;51.442;6.778;2024-01-15T12:30:46;76621.81;;;-141.21;57.66
67697;BME280;54486;51.442;6.778;2024-01-15T12:33:18;76625.81;;;-141.21;57.66
67697;BME280;54486;51.442;6.778;2024-01-15T12:35:47;76641.81;;;-141.21;58.02
67697;BME280;54486;51.442;6.778;2024-01-15T12:38:18;76645.81;;;-141.21;58.11
67697;BME280;54486;51.442;6.778;2024-01-15T12:40:46;76633.81;;;-141.21;58.01
67697;BME280;54486;51.442;6.778;2024-01-15T12:43:14;76629.81;;;-141.21;57.58
67697;BME280;54486;51.442;6.778;2024-01-15T12:45:41;76625.81;;;-141.21;57.60
67697;BME280;54486;51.442;6.778;2024-01-15T12:48:10;76625.81;;;-141.21;57.44
67697;BME280;54486;51.442;6.778;2024-01-15T12:50:38;76625.81;;;-141.21;57.62
67697;BME280;54486;51.442;6.778;2024-01-15T12:53:05;76637.81;;;-141.21;57.34
67697;BME280;54486;51.442;6.778;2024-01-15T12:55:32;76619.81;;;-141.21;57.30
67697;BME280;54486;51.442;6.778;2024-01-15T12:58:01;76625.81;;;-141.21;57.56
67697;BME280;54486;51.442;6.778;2024-01-15T13:00:29;76617.81;;;-141.21;57.44